Terminal Aerodrome Forecast
Issued by NWS Charleston, WV

Current Version | Previous Version | Graphics & Text | Print | Product List | Glossary On
Versions: 1 2 3 4 5 6 7 8 9 10 11 12 13 14 15 16 17 18 19 20 21 22 23 24 25 26 27 28
000
FTUS41 KRLX 270300 AAA
TAFPKB
TAF AMD
KPKB 270328Z 2703/2724 30007KT 6SM BR OVC012
     FM270500 31005KT 4SM BR OVC010
     FM270900 32005KT 3SM BR OVC008
     FM271500 32005KT 6SM BR OVC006
     FM271700 32006KT P6SM OVC016=

USA.gov is the U.S. government's official web portal to all federal, state and local government web resources and services.